createdAt,value
2022-08-01T00:00:44.084Z,15.75
2022-08-01T00:03:31.054Z,15.76
2022-08-01T00:06:05.158Z,15.75
2022-08-01T00:08:52.065Z,15.73
2022-08-01T00:11:32.090Z,15.73
2022-08-01T00:14:19.102Z,15.72
2022-08-01T00:17:12.065Z,15.71
2022-08-01T00:19:59.093Z,15.71
2022-08-01T00:22:39.093Z,15.72
2022-08-01T00:25:33.941Z,15.72
2022-08-01T00:28:16.055Z,15.71
2022-08-01T00:31:03.072Z,15.70
2022-08-01T00:33:36.182Z,15.68
2022-08-01T00:36:23.072Z,15.66
2022-08-01T00:38:56.144Z,15.66
2022-08-01T00:41:43.107Z,15.63
2022-08-01T00:44:23.093Z,15.63
2022-08-01T00:47:12.078Z,15.61
2022-08-01T00:49:52.059Z,15.61
2022-08-01T00:52:41.088Z,15.60
2022-08-01T00:55:23.061Z,15.62
2022-08-01T00:58:10.106Z,15.62
2022-08-01T01:00:52.384Z,15.64
2022-08-01T01:03:58.186Z,15.63
2022-08-01T01:06:40.798Z,15.63
2022-08-01T01:09:30.052Z,15.63
2022-08-01T01:12:20.095Z,15.63
2022-08-01T01:15:19.095Z,15.64
2022-08-01T01:18:15.089Z,15.64
2022-08-01T01:20:51.183Z,15.64
2022-08-01T01:23:56.102Z,15.64
2022-08-01T01:26:51.099Z,15.64
2022-08-01T01:29:59.660Z,15.62
2022-08-01T01:32:47.170Z,15.62
2022-08-01T01:35:39.094Z,15.61
2022-08-01T01:38:24.104Z,15.61
2022-08-01T01:41:19.091Z,15.61
2022-08-01T01:44:15.095Z,15.61
2022-08-01T01:47:07.109Z,15.60
2022-08-01T01:49:41.202Z,15.60
2022-08-01T01:52:29.109Z,15.59
2022-08-01T01:55:04.742Z,15.60
2022-08-01T01:57:52.116Z,15.58
2022-08-01T02:00:32.113Z,15.60
2022-08-01T02:03:20.116Z,15.58
2022-08-01T02:05:54.191Z,15.60
2022-08-01T02:08:42.133Z,15.59
2022-08-01T02:11:22.423Z,15.60
2022-08-01T02:14:11.092Z,15.60
2022-08-01T02:16:54.123Z,15.59
2022-08-01T02:19:42.129Z,15.59
2022-08-01T02:22:27.135Z,15.59
2022-08-01T02:25:30.117Z,15.58
2022-08-01T02:28:36.133Z,15.57
2022-08-01T02:31:35.126Z,15.58
2022-08-01T02:34:27.233Z,15.58
2022-08-01T02:37:03.426Z,15.57
2022-08-01T02:39:53.112Z,15.56
2022-08-01T02:42:26.231Z,15.56
2022-08-01T02:45:16.140Z,15.56
2022-08-01T02:47:51.227Z,15.56
2022-08-01T02:50:40.143Z,15.57
2022-08-01T02:53:22.135Z,15.56
2022-08-01T02:56:29.148Z,15.57
2022-08-01T02:59:02.261Z,15.57
2022-08-01T03:01:53.235Z,15.56
2022-08-01T03:04:31.287Z,15.55
2022-08-01T03:07:19.144Z,15.53
2022-08-01T03:09:54.231Z,15.53
2022-08-01T03:12:42.200Z,15.52
2022-08-01T03:15:18.245Z,15.53
2022-08-01T03:18:08.216Z,15.52
2022-08-01T03:20:49.161Z,15.49
2022-08-01T03:23:39.167Z,15.48
2022-08-01T03:26:20.137Z,15.45
2022-08-01T03:29:18.158Z,15.45
2022-08-01T03:32:14.189Z,15.44
2022-08-01T03:35:08.157Z,15.44
2022-08-01T03:38:20.496Z,15.43
2022-08-01T03:41:12.229Z,15.43
2022-08-01T03:44:11.177Z,15.41
2022-08-01T03:46:58.179Z,15.41
2022-08-01T03:49:50.162Z,15.40
2022-08-01T03:52:31.173Z,15.40
2022-08-01T03:55:20.183Z,15.41
2022-08-01T03:58:01.171Z,15.42
2022-08-01T04:00:49.171Z,15.44
2022-08-01T04:03:23.259Z,15.44
2022-08-01T04:06:16.180Z,15.45
2022-08-01T04:09:03.174Z,15.44
2022-08-01T04:11:57.171Z,15.45
2022-08-01T04:14:44.180Z,15.45
2022-08-01T04:17:38.924Z,15.46
2022-08-01T04:20:25.231Z,15.45
2022-08-01T04:22:59.320Z,15.46
2022-08-01T04:25:48.197Z,15.47
2022-08-01T04:28:22.256Z,15.48
2022-08-01T04:31:19.196Z,15.49
2022-08-01T04:34:16.237Z,15.50
2022-08-01T04:37:10.204Z,15.52
2022-08-01T04:40:02.212Z,15.56
2022-08-01T04:42:35.316Z,15.61
2022-08-01T04:45:23.236Z,15.64
2022-08-01T04:47:57.308Z,15.69
2022-08-01T04:50:44.186Z,15.75
2022-08-01T04:53:33.216Z,15.82
2022-08-01T04:56:20.199Z,15.86
2022-08-01T04:59:19.865Z,15.94
2022-08-01T05:02:07.566Z,16.01
2022-08-01T05:04:41.283Z,16.07
2022-08-01T05:07:28.196Z,16.10
2022-08-01T05:10:02.363Z,16.13
2022-08-01T05:12:52.243Z,16.18
2022-08-01T05:15:25.285Z,16.21
2022-08-01T05:18:12.241Z,16.21
2022-08-01T05:20:48.394Z,16.21
2022-08-01T05:23:42.911Z,16.23
2022-08-01T05:26:18.327Z,16.26
2022-08-01T05:29:05.219Z,16.30
2022-08-01T05:31:38.359Z,16.34
2022-08-01T05:34:25.228Z,16.35
2022-08-01T05:37:05.237Z,16.37
2022-08-01T05:39:52.230Z,16.37
2022-08-01T05:42:25.297Z,16.38
2022-08-01T05:45:12.234Z,16.39
2022-08-01T05:47:52.245Z,16.39
2022-08-01T05:50:40.245Z,16.41
2022-08-01T05:53:20.229Z,16.42
2022-08-01T05:56:14.223Z,16.41
2022-08-01T05:59:08.234Z,16.44
2022-08-01T06:02:02.363Z,16.48
2022-08-01T06:04:49.245Z,16.55
2022-08-01T06:07:29.246Z,16.64
2022-08-01T06:10:17.266Z,16.68
2022-08-01T06:12:57.248Z,16.72
2022-08-01T06:15:44.256Z,16.78
2022-08-01T06:18:20.349Z,16.82
2022-08-01T06:21:07.247Z,16.86
2022-08-01T06:23:49.334Z,16.93
2022-08-01T06:26:36.251Z,16.98
2022-08-01T06:29:09.995Z,17.03
2022-08-01T06:32:04.590Z,17.07
2022-08-01T06:34:51.241Z,17.15
2022-08-01T06:37:24.392Z,17.19
2022-08-01T06:40:16.635Z,17.25
2022-08-01T06:42:51.409Z,17.37
2022-08-01T06:45:38.252Z,17.44
2022-08-01T06:48:18.259Z,17.49
2022-08-01T06:51:21.279Z,17.48
2022-08-01T06:54:08.270Z,17.45
2022-08-01T06:56:41.363Z,17.42
2022-08-01T06:59:28.260Z,17.39
2022-08-01T07:02:09.704Z,17.39
2022-08-01T07:05:03.835Z,17.36
2022-08-01T07:07:50.263Z,17.30
2022-08-01T07:10:31.294Z,17.27
2022-08-01T07:13:19.270Z,17.22
2022-08-01T07:15:55.585Z,17.18
2022-08-01T07:18:42.269Z,17.17
2022-08-01T07:21:16.782Z,17.15
2022-08-01T07:24:22.292Z,17.12
2022-08-01T07:27:24.214Z,17.09
2022-08-01T07:30:13.299Z,17.05
2022-08-01T07:32:46.383Z,17.02
2022-08-01T07:35:33.293Z,17.02
2022-08-01T07:38:08.722Z,17.02
2022-08-01T07:40:59.353Z,16.99
2022-08-01T07:43:32.398Z,17.01
2022-08-01T07:46:19.282Z,17.00
2022-08-01T07:48:52.448Z,17.01
2022-08-01T07:51:39.300Z,17.00
2022-08-01T07:54:12.386Z,16.99
2022-08-01T07:56:59.295Z,16.99
2022-08-01T07:59:39.284Z,16.96
2022-08-01T08:02:26.427Z,16.96
2022-08-01T08:05:06.360Z,16.98
2022-08-01T08:08:00.321Z,16.98
2022-08-01T08:10:47.302Z,17.00
2022-08-01T08:13:20.990Z,17.02
2022-08-01T08:16:07.324Z,17.03
2022-08-01T08:18:40.383Z,17.07
2022-08-01T08:21:27.326Z,17.14
2022-08-01T08:24:18.925Z,17.25
2022-08-01T08:27:07.337Z,17.50
2022-08-01T08:29:40.449Z,17.66
2022-08-01T08:32:34.356Z,17.87
2022-08-01T08:35:40.555Z,18.12
2022-08-01T08:38:42.324Z,18.37
2022-08-01T08:41:38.053Z,18.67
2022-08-01T08:44:33.343Z,18.87
2022-08-01T08:47:28.339Z,19.04
2022-08-01T08:50:22.319Z,19.16
2022-08-01T08:53:18.651Z,19.26
2022-08-01T08:56:13.347Z,19.29
2022-08-01T08:59:00.414Z,19.38
2022-08-01T09:01:42.366Z,19.48
2022-08-01T09:04:36.342Z,19.54
2022-08-01T09:07:23.340Z,19.61
2022-08-01T09:10:04.342Z,19.65
2022-08-01T09:13:27.353Z,19.66
2022-08-01T09:16:14.339Z,19.62
2022-08-01T09:18:53.423Z,19.79
2022-08-01T09:21:40.414Z,19.82
2022-08-01T09:24:25.994Z,19.83
2022-08-01T09:27:28.347Z,19.79
2022-08-01T09:30:09.362Z,19.78
2022-08-01T09:33:21.646Z,19.73
2022-08-01T09:36:08.363Z,19.66
2022-08-01T09:38:47.888Z,19.65
2022-08-01T09:41:39.976Z,19.63
2022-08-01T09:44:13.455Z,19.61
2022-08-01T09:47:07.576Z,19.57
2022-08-01T09:49:50.665Z,19.59
2022-08-01T09:52:41.047Z,19.61
2022-08-01T09:55:17.455Z,19.69
2022-08-01T09:58:08.379Z,19.71
2022-08-01T10:00:45.973Z,19.72
2022-08-01T10:03:34.512Z,19.74
2022-08-01T10:06:14.379Z,19.80
2022-08-01T10:09:08.419Z,19.88
2022-08-01T10:12:02.400Z,19.94
2022-08-01T10:14:50.571Z,19.94
2022-08-01T10:17:50.392Z,19.99
2022-08-01T10:20:47.378Z,20.05
2022-08-01T10:23:42.404Z,20.07
2022-08-01T10:26:40.406Z,20.07
2022-08-01T10:29:59.228Z,20.12
2022-08-01T10:32:51.414Z,20.18
2022-08-01T10:35:47.389Z,20.19
2022-08-01T10:38:30.414Z,20.21
2022-08-01T10:41:17.385Z,20.22
2022-08-01T10:43:52.668Z,20.29
2022-08-01T10:46:39.405Z,20.32
2022-08-01T10:49:22.509Z,20.32
2022-08-01T10:52:09.410Z,20.39
2022-08-01T10:54:52.896Z,20.42
2022-08-01T10:57:53.416Z,20.39
2022-08-01T11:00:29.493Z,20.42
2022-08-01T11:03:16.423Z,20.37
2022-08-01T11:05:51.663Z,20.35
2022-08-01T11:08:45.475Z,20.31
2022-08-01T11:11:19.565Z,20.38
2022-08-01T11:14:26.409Z,20.40
2022-08-01T11:17:54.712Z,20.36
2022-08-01T11:20:50.416Z,20.36
2022-08-01T11:23:44.438Z,20.36
2022-08-01T11:26:46.418Z,20.37
2022-08-01T11:29:41.467Z,20.42
2022-08-01T11:33:05.626Z,20.43
2022-08-01T11:36:18.442Z,20.46
2022-08-01T11:39:14.133Z,20.44
2022-08-01T11:42:02.455Z,20.41
2022-08-01T11:44:56.528Z,20.39
2022-08-01T11:47:59.421Z,20.38
2022-08-01T11:50:50.439Z,20.37
2022-08-01T11:53:45.435Z,20.42
2022-08-01T11:56:32.447Z,20.44
2022-08-01T11:59:07.541Z,20.45
2022-08-01T12:02:02.508Z,20.49
2022-08-01T12:05:02.460Z,20.47
2022-08-01T12:07:50.468Z,20.48
2022-08-01T12:10:33.449Z,20.50
2022-08-01T12:13:21.443Z,20.50
2022-08-01T12:15:56.996Z,20.51
2022-08-01T12:18:50.442Z,20.49
2022-08-01T12:21:23.576Z,20.49
2022-08-01T12:24:10.480Z,20.48
2022-08-01T12:26:49.527Z,20.44
2022-08-01T12:29:48.484Z,20.41
2022-08-01T12:32:37.532Z,20.42
2022-08-01T12:35:32.483Z,20.41
2022-08-01T12:38:21.686Z,20.42
2022-08-01T12:41:16.477Z,20.41
2022-08-01T12:44:10.464Z,20.41
2022-08-01T12:46:57.476Z,20.39
2022-08-01T12:49:38.503Z,20.40
2022-08-01T12:52:32.481Z,20.39
2022-08-01T12:55:33.685Z,20.41
2022-08-01T12:58:16.482Z,20.42
2022-08-01T13:01:11.837Z,20.41
2022-08-01T13:03:52.483Z,20.42
2022-08-01T13:06:46.502Z,20.41
2022-08-01T13:10:05.490Z,20.43
2022-08-01T13:13:07.469Z,20.48
2022-08-01T13:15:55.158Z,20.50
2022-08-01T13:18:43.472Z,20.55
2022-08-01T13:21:54.229Z,20.53
2022-08-01T13:24:56.500Z,20.57
2022-08-01T13:27:52.991Z,20.58
2022-08-01T13:30:47.524Z,20.61
2022-08-01T13:33:55.325Z,20.65
2022-08-01T13:36:54.512Z,20.68
2022-08-01T13:39:49.505Z,20.67
2022-08-01T13:42:36.495Z,20.67
2022-08-01T13:45:14.624Z,20.73
2022-08-01T13:48:12.195Z,20.70
2022-08-01T13:50:57.414Z,20.69
2022-08-01T13:53:46.533Z,20.65
2022-08-01T13:56:28.518Z,20.64
2022-08-01T13:59:08.511Z,20.63
2022-08-01T14:01:49.621Z,20.62
2022-08-01T14:04:29.523Z,20.67
2022-08-01T14:07:14.539Z,20.67
2022-08-01T14:10:17.606Z,20.67
2022-08-01T14:12:56.815Z,20.63
2022-08-01T14:15:38.893Z,20.64
2022-08-01T14:18:26.530Z,20.62
2022-08-01T14:21:07.524Z,20.61
2022-08-01T14:23:54.524Z,20.60
2022-08-01T14:26:34.533Z,20.60
2022-08-01T14:30:00.230Z,20.54
2022-08-01T14:32:44.548Z,20.51
2022-08-01T14:36:01.872Z,20.48
2022-08-01T14:38:52.556Z,20.46
2022-08-01T14:41:39.543Z,20.42
2022-08-01T14:44:14.669Z,20.41
2022-08-01T14:47:01.566Z,20.40
2022-08-01T14:49:49.852Z,20.37
2022-08-01T14:52:36.545Z,20.35
2022-08-01T14:55:17.539Z,20.35
2022-08-01T14:58:04.573Z,20.35
2022-08-01T15:00:37.695Z,20.34
2022-08-01T15:03:24.558Z,20.32
2022-08-01T15:05:57.654Z,20.32
2022-08-01T15:08:44.553Z,20.31
2022-08-01T15:11:17.869Z,20.31
2022-08-01T15:14:24.552Z,20.28
2022-08-01T15:17:04.586Z,20.29
2022-08-01T15:19:58.576Z,20.26
2022-08-01T15:22:45.541Z,20.27
2022-08-01T15:25:25.562Z,20.28
2022-08-01T15:28:34.591Z,20.26
2022-08-01T15:31:21.570Z,20.26
2022-08-01T15:34:08.557Z,20.25
2022-08-01T15:37:02.577Z,20.25
2022-08-01T15:39:49.574Z,20.22
2022-08-01T15:42:26.979Z,20.24
2022-08-01T15:45:37.378Z,20.21
2022-08-01T15:48:14.574Z,20.21
2022-08-01T15:51:08.577Z,20.19
2022-08-01T15:53:55.572Z,20.19
2022-08-01T15:56:28.698Z,20.19
2022-08-01T15:59:15.565Z,20.17
2022-08-01T16:01:51.219Z,20.18
2022-08-01T16:04:38.957Z,20.17
2022-08-01T16:07:12.999Z,20.16
2022-08-01T16:09:59.584Z,20.15
2022-08-01T16:12:32.802Z,20.15
2022-08-01T16:15:19.610Z,20.14
2022-08-01T16:18:02.270Z,20.13
2022-08-01T16:20:56.582Z,20.12
2022-08-01T16:23:43.591Z,20.11
2022-08-01T16:26:27.208Z,20.11
2022-08-01T16:29:14.619Z,20.11
2022-08-01T16:32:01.752Z,20.10
2022-08-01T16:34:54.624Z,20.08
2022-08-01T16:37:27.675Z,20.07
2022-08-01T16:40:14.598Z,20.07
2022-08-01T16:42:47.845Z,20.07
2022-08-01T16:45:36.435Z,20.06
2022-08-01T16:48:19.617Z,20.07
2022-08-01T16:51:13.595Z,20.06
2022-08-01T16:54:25.173Z,20.05
2022-08-01T16:57:19.621Z,20.05
2022-08-01T17:00:06.625Z,20.03
2022-08-01T17:02:41.806Z,20.05
2022-08-01T17:05:29.630Z,20.03
2022-08-01T17:08:02.757Z,20.04
2022-08-01T17:10:49.645Z,20.05
2022-08-01T17:13:29.615Z,20.05
2022-08-01T17:16:26.643Z,20.02
2022-08-01T17:19:14.794Z,20.03
2022-08-01T17:21:48.709Z,20.02
2022-08-01T17:24:35.634Z,20.00
2022-08-01T17:27:12.704Z,20.00
2022-08-01T17:30:00.630Z,19.96
2022-08-01T17:32:36.521Z,19.95
2022-08-01T17:35:23.658Z,19.93
2022-08-01T17:37:56.738Z,19.91
2022-08-01T17:40:43.646Z,19.88
2022-08-01T17:43:16.857Z,19.86
2022-08-01T17:46:04.635Z,19.81
2022-08-01T17:48:37.755Z,19.77
2022-08-01T17:51:25.625Z,19.75
2022-08-01T17:54:07.659Z,19.72
2022-08-01T17:57:01.655Z,19.68
2022-08-01T17:59:50.682Z,19.62
2022-08-01T18:02:30.653Z,19.57
2022-08-01T18:05:36.189Z,19.51
2022-08-01T18:08:24.665Z,19.45
2022-08-01T18:10:57.753Z,19.41
2022-08-01T18:13:44.686Z,19.36
2022-08-01T18:16:18.745Z,19.34
2022-08-01T18:19:05.669Z,19.29
2022-08-01T18:21:42.775Z,19.24
2022-08-01T18:24:29.657Z,19.18
2022-08-01T18:27:02.760Z,19.15
2022-08-01T18:29:49.684Z,19.09
2022-08-01T18:32:29.687Z,19.04
2022-08-01T18:35:23.671Z,19.00
2022-08-01T18:38:24.249Z,18.97
2022-08-01T18:40:57.753Z,18.93
2022-08-01T18:43:44.672Z,18.88
2022-08-01T18:46:24.684Z,18.83
2022-08-01T18:49:15.714Z,18.80
2022-08-01T18:51:49.165Z,18.77
2022-08-01T18:54:36.680Z,18.73
2022-08-01T18:57:10.005Z,18.71
2022-08-01T18:59:56.698Z,18.69
2022-08-01T19:02:29.766Z,18.68
2022-08-01T19:05:17.749Z,18.67
2022-08-01T19:08:04.767Z,18.64
2022-08-01T19:10:53.743Z,18.61
2022-08-01T19:13:35.745Z,18.60
2022-08-01T19:16:22.689Z,18.57
2022-08-01T19:19:02.710Z,18.56
2022-08-01T19:21:51.750Z,18.52
2022-08-01T19:24:32.717Z,18.53
2022-08-01T19:27:25.749Z,18.50
2022-08-01T19:30:07.691Z,18.46
2022-08-01T19:33:01.750Z,18.44
2022-08-01T19:35:48.698Z,18.41
2022-08-01T19:38:28.701Z,18.39
2022-08-01T19:41:22.701Z,18.35
2022-08-01T19:44:13.748Z,18.31
2022-08-01T19:46:47.884Z,18.26
2022-08-01T19:49:34.796Z,18.22
2022-08-01T19:52:09.892Z,18.18
2022-08-01T19:54:57.751Z,18.14
2022-08-01T19:57:45.398Z,18.10
2022-08-01T20:00:39.747Z,18.04
2022-08-01T20:03:35.826Z,17.99
2022-08-01T20:06:24.372Z,17.90
2022-08-01T20:09:00.854Z,17.82
2022-08-01T20:11:55.757Z,17.78
2022-08-01T20:14:37.748Z,17.73
2022-08-01T20:17:26.719Z,17.68
2022-08-01T20:20:06.725Z,17.63
2022-08-01T20:23:02.750Z,17.53
2022-08-01T20:25:51.834Z,17.46
2022-08-01T20:28:29.883Z,17.39
2022-08-01T20:31:16.753Z,17.33
2022-08-01T20:33:54.853Z,17.29
2022-08-01T20:36:42.745Z,17.27
2022-08-01T20:39:28.725Z,17.21
2022-08-01T20:42:15.771Z,17.18
2022-08-01T20:44:49.887Z,17.13
2022-08-01T20:47:39.749Z,17.07
2022-08-01T20:50:52.688Z,17.03
2022-08-01T20:53:46.744Z,16.98
2022-08-01T20:56:26.919Z,16.96
2022-08-01T20:59:55.304Z,16.92
2022-08-01T21:02:47.951Z,16.88
2022-08-01T21:05:37.749Z,16.86
2022-08-01T21:08:29.779Z,16.84
2022-08-01T21:11:32.827Z,16.83
2022-08-01T21:14:27.845Z,16.82
2022-08-01T21:17:33.915Z,16.81
2022-08-01T21:20:12.911Z,16.81
2022-08-01T21:23:09.779Z,16.79
2022-08-01T21:25:44.422Z,16.77
2022-08-01T21:28:32.827Z,16.77
2022-08-01T21:31:05.886Z,16.77
2022-08-01T21:34:03.619Z,16.75
2022-08-01T21:36:59.775Z,16.75
2022-08-01T21:39:49.763Z,16.74
2022-08-01T21:42:23.039Z,16.74
2022-08-01T21:45:10.816Z,16.76
2022-08-01T21:47:44.070Z,16.76
2022-08-01T21:50:33.639Z,16.77
2022-08-01T21:53:38.300Z,16.78
2022-08-01T21:57:04.828Z,16.79
2022-08-01T21:59:47.774Z,16.78
2022-08-01T22:02:43.861Z,16.76
2022-08-01T22:05:23.781Z,16.75
2022-08-01T22:08:36.857Z,16.72
2022-08-01T22:11:14.913Z,16.70
2022-08-01T22:14:12.818Z,16.68
2022-08-01T22:16:49.085Z,16.66
2022-08-01T22:19:44.848Z,16.65
2022-08-01T22:22:50.744Z,16.64
2022-08-01T22:25:42.836Z,16.61
2022-08-01T22:28:36.831Z,16.61
2022-08-01T22:31:24.825Z,16.60
2022-08-01T22:33:58.947Z,16.60
2022-08-01T22:36:45.889Z,16.60
2022-08-01T22:39:32.872Z,16.58
2022-08-01T22:42:19.844Z,16.55
2022-08-01T22:45:17.865Z,16.56
2022-08-01T22:48:23.869Z,16.54
2022-08-01T22:51:05.192Z,16.53
2022-08-01T22:54:03.850Z,16.51
2022-08-01T22:56:49.860Z,16.49
2022-08-01T22:59:42.925Z,16.47
2022-08-01T23:02:21.057Z,16.44
2022-08-01T23:05:13.925Z,16.41
2022-08-01T23:07:53.976Z,16.41
2022-08-01T23:10:42.933Z,16.40
2022-08-01T23:13:24.878Z,16.42
2022-08-01T23:16:18.938Z,16.43
2022-08-01T23:19:06.874Z,16.43
2022-08-01T23:21:42.070Z,16.44
2022-08-01T23:24:29.901Z,16.46
2022-08-01T23:28:03.875Z,16.47
2022-08-01T23:30:35.872Z,16.48
2022-08-01T23:33:09.926Z,16.48
2022-08-01T23:36:01.895Z,16.48
2022-08-01T23:38:35.146Z,16.48
2022-08-01T23:41:21.895Z,16.47
2022-08-01T23:43:54.939Z,16.49
2022-08-01T23:46:41.890Z,16.48
2022-08-01T23:49:15.044Z,16.48
2022-08-01T23:52:01.890Z,16.48
2022-08-01T23:54:41.898Z,16.48
2022-08-01T23:57:41.228Z,16.49
